createdAt,value
2018-09-26T00:00:01.632Z,2.07
2018-09-26T00:02:31.158Z,2.30
2018-09-26T00:04:57.978Z,2.10
2018-09-26T00:07:24.699Z,1.80
2018-09-26T00:09:51.447Z,1.80
2018-09-26T00:12:18.371Z,2.40
2018-09-26T00:14:45.198Z,2.20
2018-09-26T00:17:11.911Z,1.87
2018-09-26T00:19:38.751Z,1.80
2018-09-26T00:22:05.486Z,2.20
2018-09-26T00:24:32.426Z,2.00
2018-09-26T00:26:59.110Z,2.17
2018-09-26T00:29:25.821Z,1.90
2018-09-26T00:31:52.597Z,1.80
2018-09-26T00:34:19.471Z,1.90
2018-09-26T00:36:46.231Z,1.80
2018-09-26T00:39:12.921Z,2.13
2018-09-26T00:41:39.699Z,2.13
2018-09-26T00:44:06.441Z,1.93
2018-09-26T00:46:33.261Z,2.00
2018-09-26T00:49:00.076Z,1.93
2018-09-26T00:51:26.883Z,1.87
2018-09-26T00:53:53.570Z,2.20
2018-09-26T00:56:20.344Z,1.77
2018-09-26T00:58:47.085Z,1.80
2018-09-26T01:01:13.855Z,2.30
2018-09-26T01:03:40.549Z,1.97
2018-09-26T01:06:07.195Z,2.03
2018-09-26T01:08:33.875Z,1.80
2018-09-26T01:11:00.507Z,1.67
2018-09-26T01:13:27.247Z,1.90
2018-09-26T01:15:54.053Z,1.77
2018-09-26T01:18:20.751Z,2.13
2018-09-26T01:20:47.449Z,1.80
2018-09-26T01:23:14.208Z,1.57
2018-09-26T01:25:41.783Z,1.90
2018-09-26T01:28:08.516Z,1.63
2018-09-26T01:30:35.267Z,2.10
2018-09-26T01:33:02.283Z,2.30
2018-09-26T01:35:28.965Z,2.07
2018-09-26T01:37:55.681Z,1.60
2018-09-26T01:40:22.327Z,1.87
2018-09-26T01:42:49.132Z,2.00
2018-09-26T01:45:15.904Z,1.93
2018-09-26T01:47:42.619Z,1.97
2018-09-26T01:50:09.320Z,1.77
2018-09-26T01:52:36.006Z,1.80
2018-09-26T01:55:02.658Z,2.23
2018-09-26T01:57:29.480Z,1.70
2018-09-26T01:59:56.228Z,2.00
2018-09-26T02:02:22.950Z,1.87
2018-09-26T02:04:49.695Z,1.77
2018-09-26T02:07:16.422Z,2.20
2018-09-26T02:09:43.174Z,1.67
2018-09-26T02:12:09.944Z,2.10
2018-09-26T02:14:36.720Z,1.73
2018-09-26T02:17:03.402Z,2.30
2018-09-26T02:19:30.251Z,1.67
2018-09-26T02:21:56.944Z,2.00
2018-09-26T02:24:23.688Z,1.80
2018-09-26T02:26:50.366Z,1.80
2018-09-26T02:29:17.058Z,2.13
2018-09-26T02:31:43.784Z,1.70
2018-09-26T02:34:10.525Z,1.93
2018-09-26T02:36:37.199Z,1.60
2018-09-26T02:39:03.960Z,2.00
2018-09-26T02:41:30.767Z,2.17
2018-09-26T02:43:57.505Z,1.50
2018-09-26T02:46:24.331Z,1.90
2018-09-26T02:48:56.544Z,1.97
2018-09-26T02:51:23.307Z,1.93
2018-09-26T02:53:50.257Z,1.80
2018-09-26T02:56:16.945Z,1.97
2018-09-26T02:58:43.699Z,2.13
2018-09-26T03:01:10.443Z,1.90
2018-09-26T03:03:37.138Z,2.07
2018-09-26T03:06:03.870Z,2.03
2018-09-26T03:08:30.558Z,1.80
2018-09-26T03:10:57.475Z,2.30
2018-09-26T03:13:24.239Z,2.00
2018-09-26T03:15:51.039Z,1.80
2018-09-26T03:18:17.801Z,1.87
2018-09-26T03:20:44.515Z,2.43
2018-09-26T03:23:11.339Z,2.20
2018-09-26T03:25:38.125Z,2.33
2018-09-26T03:28:04.931Z,2.20
2018-09-26T03:30:31.698Z,2.13
2018-09-26T03:32:58.507Z,2.13
2018-09-26T03:35:25.296Z,2.20
2018-09-26T03:37:52.072Z,2.40
2018-09-26T03:40:18.795Z,2.30
2018-09-26T03:42:45.855Z,2.17
2018-09-26T03:45:12.562Z,2.60
2018-09-26T03:47:39.308Z,2.40
2018-09-26T03:50:06.036Z,2.60
2018-09-26T03:52:32.760Z,2.50
2018-09-26T03:54:59.576Z,2.23
2018-09-26T03:57:26.248Z,2.90
2018-09-26T03:59:52.983Z,3.17
2018-09-26T04:02:19.790Z,3.30
2018-09-26T04:04:46.528Z,3.00
2018-09-26T04:07:13.202Z,3.10
2018-09-26T04:09:39.905Z,2.90
2018-09-26T04:12:06.744Z,2.77
2018-09-26T04:14:33.562Z,2.90
2018-09-26T04:17:00.296Z,2.60
2018-09-26T04:19:27.063Z,2.97
2018-09-26T04:21:53.933Z,2.67
2018-09-26T04:24:20.760Z,3.30
2018-09-26T04:26:47.734Z,3.13
2018-09-26T04:29:14.253Z,2.70
2018-09-26T04:31:40.955Z,3.10
2018-09-26T04:34:07.702Z,2.47
2018-09-26T04:36:34.437Z,2.80
2018-09-26T04:39:01.134Z,3.00
2018-09-26T04:41:27.852Z,3.53
2018-09-26T04:43:54.689Z,2.87
2018-09-26T04:46:21.516Z,3.10
2018-09-26T04:48:48.212Z,3.20
2018-09-26T04:51:14.929Z,3.13
2018-09-26T04:53:41.641Z,2.93
2018-09-26T04:56:08.300Z,3.10
2018-09-26T04:58:35.036Z,3.10
2018-09-26T05:01:01.827Z,2.90
2018-09-26T05:03:28.643Z,2.77
2018-09-26T05:05:55.339Z,3.07
2018-09-26T05:08:22.136Z,3.20
2018-09-26T05:10:48.998Z,3.33
2018-09-26T05:13:15.840Z,2.80
2018-09-26T05:15:42.740Z,2.80
2018-09-26T05:18:09.553Z,2.80
2018-09-26T05:20:36.287Z,2.90
2018-09-26T05:23:03.102Z,2.90
2018-09-26T05:25:29.872Z,3.30
2018-09-26T05:27:56.823Z,2.90
2018-09-26T05:30:23.590Z,3.57
2018-09-26T05:32:50.611Z,3.77
2018-09-26T05:35:18.095Z,3.00
2018-09-26T05:37:45.966Z,3.07
2018-09-26T05:40:14.108Z,2.90
2018-09-26T05:42:41.185Z,3.40
2018-09-26T05:45:08.179Z,2.97
2018-09-26T05:47:35.615Z,3.03
2018-09-26T05:50:03.048Z,3.07
2018-09-26T05:52:30.876Z,3.17
2018-09-26T05:54:57.631Z,2.97
2018-09-26T05:57:26.082Z,3.53
2018-09-26T05:59:52.900Z,2.97
2018-09-26T06:02:19.742Z,2.83
2018-09-26T06:04:46.893Z,2.70
2018-09-26T06:07:13.692Z,3.53
2018-09-26T06:09:40.418Z,2.53
2018-09-26T06:12:07.575Z,2.80
2018-09-26T06:14:34.372Z,2.80
2018-09-26T06:17:01.223Z,2.80
2018-09-26T06:19:27.964Z,2.57
2018-09-26T06:21:54.688Z,2.93
2018-09-26T06:24:22.272Z,2.63
2018-09-26T06:26:49.294Z,2.50
2018-09-26T06:29:16.300Z,2.57
2018-09-26T06:31:43.078Z,2.93
2018-09-26T06:34:09.827Z,2.73
2018-09-26T06:36:36.585Z,2.40
2018-09-26T06:39:04.230Z,2.63
2018-09-26T06:41:31.279Z,2.50
2018-09-26T06:43:58.046Z,3.10
2018-09-26T06:46:24.837Z,3.13
2018-09-26T06:48:51.560Z,2.50
2018-09-26T06:51:18.700Z,2.40
2018-09-26T06:53:45.436Z,2.60
2018-09-26T06:56:12.280Z,2.43
2018-09-26T06:58:43.949Z,2.60
2018-09-26T07:01:10.655Z,2.80
2018-09-26T07:03:37.586Z,2.90
2018-09-26T07:06:04.923Z,2.40
2018-09-26T07:08:31.897Z,2.50
2018-09-26T07:10:58.680Z,2.97
2018-09-26T07:13:25.419Z,2.07
2018-09-26T07:15:52.522Z,2.67
2018-09-26T07:18:19.314Z,2.27
2018-09-26T07:20:46.010Z,2.63
2018-09-26T07:23:12.720Z,1.80
2018-09-26T07:25:39.434Z,2.53
2018-09-26T07:28:06.231Z,2.97
2018-09-26T07:30:33.625Z,2.50
2018-09-26T07:33:00.534Z,2.20
2018-09-26T07:35:27.348Z,2.23
2018-09-26T07:37:54.172Z,2.50
2018-09-26T07:40:21.496Z,2.23
2018-09-26T07:42:48.274Z,2.40
2018-09-26T07:45:15.886Z,2.33
2018-09-26T07:47:42.538Z,1.70
2018-09-26T07:50:09.854Z,2.63
2018-09-26T07:52:36.696Z,2.00
2018-09-26T07:55:03.415Z,2.57
2018-09-26T07:57:30.130Z,1.87
2018-09-26T07:59:57.048Z,2.40
2018-09-26T08:02:23.928Z,2.00
2018-09-26T08:04:50.731Z,2.07
2018-09-26T08:07:17.563Z,2.60
2018-09-26T08:09:44.330Z,2.40
2018-09-26T08:12:11.029Z,2.40
2018-09-26T08:14:37.883Z,2.23
2018-09-26T08:17:04.636Z,2.47
2018-09-26T08:19:31.595Z,2.30
2018-09-26T08:21:58.435Z,2.30
2018-09-26T08:24:25.267Z,2.40
2018-09-26T08:26:52.591Z,2.53
2018-09-26T08:29:19.435Z,2.30
2018-09-26T08:31:46.209Z,1.83
2018-09-26T08:34:12.905Z,2.20
2018-09-26T08:36:39.846Z,2.10
2018-09-26T08:39:06.602Z,1.80
2018-09-26T08:41:33.289Z,2.43
2018-09-26T08:44:00.833Z,2.30
2018-09-26T08:46:27.642Z,2.50
2018-09-26T08:48:54.397Z,2.23
2018-09-26T08:51:21.326Z,2.23
2018-09-26T08:53:48.157Z,2.30
2018-09-26T08:56:14.902Z,2.03
2018-09-26T08:58:41.628Z,2.30
2018-09-26T09:01:14.086Z,1.90
2018-09-26T09:03:40.902Z,2.10
2018-09-26T09:06:07.775Z,2.13
2018-09-26T09:08:34.626Z,2.07
2018-09-26T09:11:01.304Z,2.10
2018-09-26T09:13:28.033Z,2.10
2018-09-26T09:15:54.803Z,2.20
2018-09-26T09:18:21.709Z,2.03
2018-09-26T09:20:48.508Z,2.47
2018-09-26T09:23:15.702Z,1.80
2018-09-26T09:25:42.447Z,2.83
2018-09-26T09:28:09.137Z,2.40
2018-09-26T09:30:35.912Z,2.17
2018-09-26T09:33:09.228Z,2.07
2018-09-26T09:35:35.957Z,2.00
2018-09-26T09:38:02.703Z,2.10
2018-09-26T09:40:29.471Z,2.10
2018-09-26T09:42:56.164Z,2.17
2018-09-26T09:45:22.969Z,2.00
2018-09-26T09:47:49.827Z,2.40
2018-09-26T09:50:16.626Z,2.50
2018-09-26T09:52:43.442Z,2.10
2018-09-26T09:55:10.201Z,2.70
2018-09-26T09:57:37.097Z,2.40
2018-09-26T10:00:03.889Z,2.10
2018-09-26T10:02:30.730Z,2.40
2018-09-26T10:04:57.566Z,2.27
2018-09-26T10:07:24.425Z,1.90
2018-09-26T10:09:51.205Z,2.20
2018-09-26T10:12:17.997Z,2.07
2018-09-26T10:14:45.127Z,2.27
2018-09-26T10:17:11.931Z,2.40
2018-09-26T10:19:38.720Z,2.40
2018-09-26T10:22:05.517Z,2.00
2018-09-26T10:24:32.290Z,2.33
2018-09-26T10:26:59.023Z,2.40
2018-09-26T10:29:25.845Z,2.07
2018-09-26T10:31:52.625Z,2.43
2018-09-26T10:34:19.418Z,2.10
2018-09-26T10:36:46.152Z,2.23
2018-09-26T10:39:12.859Z,2.00
2018-09-26T10:41:39.553Z,2.13
2018-09-26T10:44:06.682Z,2.10
2018-09-26T10:46:33.502Z,1.80
2018-09-26T10:49:00.344Z,2.03
2018-09-26T10:51:27.117Z,2.10
2018-09-26T10:53:53.816Z,2.30
2018-09-26T10:56:20.643Z,1.83
2018-09-26T10:58:47.456Z,2.23
2018-09-26T11:01:14.257Z,1.97
2018-09-26T11:03:40.962Z,2.13
2018-09-26T11:06:07.644Z,2.10
2018-09-26T11:08:34.437Z,2.27
2018-09-26T11:11:01.221Z,2.00
2018-09-26T11:13:28.104Z,1.90
2018-09-26T11:15:54.832Z,2.17
2018-09-26T11:18:21.556Z,2.07
2018-09-26T11:20:48.334Z,2.47
2018-09-26T11:23:15.101Z,1.93
2018-09-26T11:25:41.876Z,1.80
2018-09-26T11:28:08.722Z,2.50
2018-09-26T11:30:36.264Z,1.93
2018-09-26T11:33:03.074Z,2.00
2018-09-26T11:35:29.812Z,1.83
2018-09-26T11:37:56.528Z,1.90
2018-09-26T11:40:23.481Z,2.10
2018-09-26T11:42:50.192Z,1.80
2018-09-26T11:45:17.157Z,1.70
2018-09-26T11:47:43.908Z,2.20
2018-09-26T11:50:10.774Z,1.77
2018-09-26T11:52:37.602Z,1.73
2018-09-26T11:55:04.439Z,1.67
2018-09-26T11:57:31.141Z,1.97
2018-09-26T11:59:57.966Z,1.87
2018-09-26T12:02:24.748Z,1.70
2018-09-26T12:04:51.481Z,1.57
2018-09-26T12:07:18.234Z,2.00
2018-09-26T12:09:44.974Z,2.23
2018-09-26T12:12:11.786Z,2.03
2018-09-26T12:14:38.619Z,1.77
2018-09-26T12:17:05.332Z,2.20
2018-09-26T12:19:32.102Z,1.70
2018-09-26T12:21:59.045Z,1.50
2018-09-26T12:24:25.745Z,1.60
2018-09-26T12:26:52.773Z,1.77
2018-09-26T12:29:19.631Z,1.80
2018-09-26T12:31:46.371Z,2.10
2018-09-26T12:34:13.121Z,1.70
2018-09-26T12:36:39.900Z,1.60
2018-09-26T12:39:06.733Z,1.67
2018-09-26T12:41:33.571Z,1.73
2018-09-26T12:44:00.364Z,1.63
2018-09-26T12:46:27.168Z,1.77
2018-09-26T12:48:53.907Z,1.87
2018-09-26T12:51:20.747Z,2.10
2018-09-26T12:53:47.716Z,1.50
2018-09-26T12:56:14.479Z,2.00
2018-09-26T12:58:41.215Z,1.77
2018-09-26T13:01:07.955Z,1.90
2018-09-26T13:03:34.682Z,2.10
2018-09-26T13:06:01.466Z,2.33
2018-09-26T13:08:28.455Z,1.77
2018-09-26T13:10:55.119Z,1.43
2018-09-26T13:13:21.876Z,1.80
2018-09-26T13:15:48.724Z,1.70
2018-09-26T13:18:15.616Z,2.00
2018-09-26T13:20:42.451Z,2.13
2018-09-26T13:23:09.251Z,1.70
2018-09-26T13:25:35.950Z,1.40
2018-09-26T13:28:02.676Z,1.83
2018-09-26T13:30:29.534Z,1.80
2018-09-26T13:32:56.366Z,1.87
2018-09-26T13:35:23.150Z,2.03
2018-09-26T13:37:49.958Z,2.10
2018-09-26T13:40:16.986Z,1.70
2018-09-26T13:42:43.786Z,2.17
2018-09-26T13:45:10.566Z,2.60
2018-09-26T13:47:37.327Z,3.13
2018-09-26T13:50:04.056Z,2.70
2018-09-26T13:52:30.820Z,2.73
2018-09-26T13:54:57.730Z,2.83
2018-09-26T13:57:24.504Z,2.50
2018-09-26T13:59:51.304Z,2.27
2018-09-26T14:02:18.231Z,2.23
2018-09-26T14:04:45.007Z,2.30
2018-09-26T14:07:11.835Z,2.80
2018-09-26T14:09:38.568Z,2.50
2018-09-26T14:12:05.331Z,2.53
2018-09-26T14:14:32.163Z,2.63
2018-09-26T14:16:58.890Z,2.33
2018-09-26T14:19:25.662Z,2.57
2018-09-26T14:21:52.498Z,2.37
2018-09-26T14:24:19.249Z,2.83
2018-09-26T14:26:46.105Z,2.37
2018-09-26T14:29:12.859Z,2.50
2018-09-26T14:31:39.665Z,2.70
2018-09-26T14:34:06.528Z,2.50
2018-09-26T14:36:33.331Z,3.10
2018-09-26T14:39:00.119Z,2.40
2018-09-26T14:41:27.544Z,2.70
2018-09-26T14:43:54.388Z,2.77
2018-09-26T14:46:21.188Z,2.30
2018-09-26T14:48:48.003Z,2.90
2018-09-26T14:51:14.703Z,2.50
2018-09-26T14:53:41.576Z,2.83
2018-09-26T14:56:08.408Z,3.10
2018-09-26T14:58:35.374Z,3.00
2018-09-26T15:01:02.141Z,3.10
2018-09-26T15:03:28.973Z,2.50
2018-09-26T15:05:55.830Z,2.90
2018-09-26T15:08:22.674Z,2.47
2018-09-26T15:10:49.375Z,2.60
2018-09-26T15:13:16.234Z,3.33
2018-09-26T15:15:42.984Z,2.83
2018-09-26T15:18:09.817Z,2.70
2018-09-26T15:20:36.609Z,2.77
2018-09-26T15:23:03.368Z,2.90
2018-09-26T15:25:30.093Z,3.10
2018-09-26T15:27:57.049Z,2.77
2018-09-26T15:30:23.877Z,2.97
2018-09-26T15:32:50.583Z,3.00
2018-09-26T15:35:17.409Z,2.60
2018-09-26T15:37:44.181Z,3.17
2018-09-26T15:40:10.977Z,3.50
2018-09-26T15:42:37.787Z,2.90
2018-09-26T15:45:04.593Z,3.00
2018-09-26T15:47:31.475Z,3.43
2018-09-26T15:49:58.255Z,3.47
2018-09-26T15:52:25.347Z,3.53
2018-09-26T15:54:52.035Z,3.97
2018-09-26T15:57:18.857Z,3.20
2018-09-26T15:59:45.726Z,3.40
2018-09-26T16:02:12.478Z,2.83
2018-09-26T16:04:39.191Z,2.97
2018-09-26T16:07:05.923Z,3.40
2018-09-26T16:09:32.622Z,3.50
2018-09-26T16:11:59.412Z,2.77
2018-09-26T16:14:26.272Z,3.90
2018-09-26T16:16:53.046Z,4.30
2018-09-26T16:19:19.823Z,3.60
2018-09-26T16:21:46.551Z,3.33
2018-09-26T16:24:13.322Z,3.37
2018-09-26T16:26:40.055Z,3.13
2018-09-26T16:29:06.812Z,3.13
2018-09-26T16:31:33.604Z,2.90
2018-09-26T16:34:00.374Z,3.57
2018-09-26T16:36:27.108Z,3.43
2018-09-26T16:38:53.815Z,2.87
2018-09-26T16:41:20.556Z,3.10
2018-09-26T16:43:47.285Z,3.03
2018-09-26T16:46:14.068Z,4.03
2018-09-26T16:48:41.359Z,3.40
2018-09-26T16:51:08.098Z,3.00
2018-09-26T16:53:34.852Z,3.43
2018-09-26T16:56:01.505Z,3.57
2018-09-26T16:58:28.166Z,3.53
2018-09-26T17:00:54.888Z,3.00
2018-09-26T17:03:21.804Z,3.17
2018-09-26T17:05:48.620Z,2.97
2018-09-26T17:08:15.398Z,3.23
2018-09-26T17:10:42.178Z,3.30
2018-09-26T17:13:08.958Z,3.00
2018-09-26T17:15:35.659Z,3.20
2018-09-26T17:18:02.527Z,3.00
2018-09-26T17:20:29.273Z,2.63
2018-09-26T17:22:56.047Z,2.67
2018-09-26T17:25:22.861Z,2.50
2018-09-26T17:27:49.666Z,2.53
2018-09-26T17:30:17.391Z,2.10
2018-09-26T17:32:44.056Z,2.50
2018-09-26T17:35:10.853Z,2.90
2018-09-26T17:37:37.798Z,2.80
2018-09-26T17:40:04.631Z,2.23
2018-09-26T17:42:31.482Z,2.30
2018-09-26T17:44:58.224Z,2.20
2018-09-26T17:47:24.992Z,2.73
2018-09-26T17:49:51.696Z,2.20
2018-09-26T17:52:18.533Z,1.93
2018-09-26T17:54:45.411Z,1.93
2018-09-26T17:57:13.936Z,2.30
2018-09-26T17:59:40.867Z,2.27
2018-09-26T18:02:08.748Z,2.40
2018-09-26T18:04:35.436Z,2.77
2018-09-26T18:07:02.086Z,1.70
2018-09-26T18:09:28.990Z,2.20
2018-09-26T18:11:55.756Z,2.10
2018-09-26T18:14:22.703Z,1.90
2018-09-26T18:16:49.652Z,1.73
2018-09-26T18:19:16.489Z,1.93
2018-09-26T18:21:43.215Z,1.73
2018-09-26T18:24:09.983Z,1.80
2018-09-26T18:26:37.694Z,1.83
2018-09-26T18:29:04.494Z,2.00
2018-09-26T18:31:31.367Z,1.90
2018-09-26T18:33:58.084Z,1.90
2018-09-26T18:36:24.870Z,1.80
2018-09-26T18:38:51.799Z,2.17
2018-09-26T18:41:18.563Z,1.87
2018-09-26T18:43:45.417Z,1.50
2018-09-26T18:46:12.121Z,1.80
2018-09-26T18:51:11.633Z,1.70
2018-09-26T18:53:38.667Z,1.77
2018-09-26T18:56:05.408Z,1.40
2018-09-26T18:58:33.026Z,1.70
2018-09-26T19:00:59.783Z,1.60
2018-09-26T19:03:27.109Z,1.80
2018-09-26T19:05:53.917Z,1.80
2018-09-26T19:08:20.773Z,1.80
2018-09-26T19:10:47.471Z,1.60
2018-09-26T19:13:14.151Z,1.87
2018-09-26T19:15:41.159Z,1.93
2018-09-26T19:18:08.091Z,1.80
2018-09-26T19:20:34.842Z,1.80
2018-09-26T19:23:02.261Z,1.60
2018-09-26T19:25:29.090Z,1.80
2018-09-26T19:27:55.916Z,1.80
2018-09-26T19:30:23.393Z,1.80
2018-09-26T19:32:50.207Z,1.83
2018-09-26T19:35:18.297Z,2.00
2018-09-26T19:37:45.127Z,1.97
2018-09-26T19:40:12.129Z,1.80
2018-09-26T19:42:39.486Z,2.47
2018-09-26T19:45:06.333Z,1.70
2018-09-26T19:47:33.009Z,2.00
2018-09-26T19:49:59.725Z,2.10
2018-09-26T19:52:26.493Z,2.50
2018-09-26T19:54:53.428Z,1.73
2018-09-26T19:57:21.052Z,2.20
2018-09-26T19:59:47.828Z,1.87
2018-09-26T20:02:15.281Z,1.73
2018-09-26T20:04:42.275Z,2.10
2018-09-26T20:07:09.204Z,2.37
2018-09-26T20:09:36.112Z,1.93
2018-09-26T20:12:02.796Z,2.50
2018-09-26T20:14:30.236Z,2.10
2018-09-26T20:16:57.158Z,1.70
2018-09-26T20:19:24.046Z,2.30
2018-09-26T20:21:50.824Z,2.50
2018-09-26T20:24:17.500Z,2.10
2018-09-26T20:26:44.435Z,1.97
2018-09-26T20:29:12.043Z,2.23
2018-09-26T20:31:38.763Z,2.27
2018-09-26T20:34:05.580Z,2.27
2018-09-26T20:36:32.574Z,2.50
2018-09-26T20:38:59.372Z,2.00
2018-09-26T20:41:26.074Z,2.80
2018-09-26T20:43:53.408Z,1.97
2018-09-26T20:46:20.376Z,2.10
2018-09-26T20:48:47.711Z,2.30
2018-09-26T20:51:14.429Z,2.40
2018-09-26T20:53:41.149Z,2.47
2018-09-26T20:56:08.155Z,2.47
2018-09-26T20:58:35.097Z,2.67
2018-09-26T21:01:02.422Z,2.30
2018-09-26T21:03:29.245Z,2.33
2018-09-26T21:05:56.191Z,2.60
2018-09-26T21:08:23.432Z,2.70
2018-09-26T21:10:50.392Z,3.10
2018-09-26T21:13:17.756Z,2.73
2018-09-26T21:15:44.426Z,2.60
2018-09-26T21:18:11.116Z,2.70
2018-09-26T21:20:38.076Z,2.93
2018-09-26T21:23:04.873Z,2.70
2018-09-26T21:25:31.575Z,2.80
2018-09-26T21:27:58.208Z,2.40
2018-09-26T21:30:25.012Z,2.60
2018-09-26T21:32:51.917Z,2.57
2018-09-26T21:35:18.714Z,2.50
2018-09-26T21:37:45.422Z,2.40
2018-09-26T21:40:12.138Z,2.83
2018-09-26T21:42:38.930Z,2.60
2018-09-26T21:45:06.025Z,2.53
2018-09-26T21:47:33.053Z,2.63
2018-09-26T21:49:59.865Z,2.90
2018-09-26T21:52:26.509Z,2.77
2018-09-26T21:54:53.219Z,2.70
2018-09-26T21:57:19.954Z,2.40
2018-09-26T21:59:46.814Z,2.93
2018-09-26T22:02:13.586Z,3.07
2018-09-26T22:04:40.553Z,2.60
2018-09-26T22:07:07.409Z,3.27
2018-09-26T22:09:34.244Z,3.10
2018-09-26T22:12:01.145Z,2.77
2018-09-26T22:14:28.004Z,2.73
2018-09-26T22:16:54.719Z,3.13
2018-09-26T22:19:21.505Z,2.93
2018-09-26T22:21:48.313Z,3.27
2018-09-26T22:24:15.069Z,3.27
2018-09-26T22:26:41.968Z,3.00
2018-09-26T22:29:08.807Z,3.23
2018-09-26T22:31:35.518Z,3.00
2018-09-26T22:34:02.360Z,3.03
2018-09-26T22:36:29.178Z,2.83
2018-09-26T22:38:56.572Z,2.60
2018-09-26T22:41:23.316Z,3.10
2018-09-26T22:43:50.131Z,3.03
2018-09-26T22:46:16.904Z,3.20
2018-09-26T22:48:43.805Z,2.50
2018-09-26T22:51:10.512Z,3.30
2018-09-26T22:53:37.273Z,3.43
2018-09-26T22:56:04.185Z,3.03
2018-09-26T22:58:31.059Z,3.50
2018-09-26T23:00:58.465Z,3.57
2018-09-26T23:03:25.278Z,3.30
2018-09-26T23:05:52.277Z,3.47
2018-09-26T23:08:18.961Z,2.87
2018-09-26T23:10:45.659Z,3.30
2018-09-26T23:13:13.051Z,3.17
2018-09-26T23:15:39.875Z,3.60
2018-09-26T23:18:06.692Z,3.53
2018-09-26T23:20:33.447Z,3.30
2018-09-26T23:23:00.244Z,3.37
2018-09-26T23:25:27.047Z,3.50
2018-09-26T23:27:53.736Z,3.57
2018-09-26T23:30:20.433Z,3.23
2018-09-26T23:32:47.186Z,3.43
2018-09-26T23:35:14.202Z,3.57
2018-09-26T23:37:40.990Z,3.30
2018-09-26T23:40:07.706Z,3.20
2018-09-26T23:42:34.394Z,3.03
2018-09-26T23:45:01.066Z,3.00
2018-09-26T23:47:28.162Z,3.20
2018-09-26T23:49:55.004Z,3.63
2018-09-26T23:52:21.728Z,3.37
2018-09-26T23:54:48.547Z,3.67
2018-09-26T23:57:15.228Z,3.87
2018-09-26T23:59:41.936Z,3.30
